Terminal Aerodrome Forecast
Issued by NWS Wakefield, VA

Home | Current Version | Previous Version | Text Only | Print | Product List | Glossary On
Versions: 1 2 3 4 5 6 7 8 9 10 11 12 13 14 15 16
263
FTUS41 KAKQ 122340
TAFORF
TAF
KORF 122340Z 1300/1324 21003KT P6SM BKN080
      TEMPO 1300/1303 SCT007 OVC015
     FM130700 30012G22KT P6SM SCT250
     FM131400 33017G26KT P6SM SKC=

USA.gov is the U.S. government's official web portal to all federal, state and local government web resources and services.